createdAt,value
2022-11-20T00:01:15.291Z,94653.20
2022-11-20T00:03:42.367Z,94657.80
2022-11-20T00:06:13.109Z,94659.40
2022-11-20T00:08:39.887Z,94657.80
2022-11-20T00:11:14.305Z,94663.00
2022-11-20T00:13:43.882Z,94664.40
2022-11-20T00:16:13.303Z,94665.80
2022-11-20T00:18:40.099Z,94667.40
2022-11-20T00:21:24.758Z,94664.60
2022-11-20T00:23:55.510Z,94669.40
2022-11-20T00:26:25.863Z,94670.00
2022-11-20T00:28:59.850Z,94667.80
2022-11-20T00:31:28.342Z,94671.60
2022-11-20T00:33:55.164Z,94672.00
2022-11-20T00:36:26.008Z,94669.80
2022-11-20T00:38:58.319Z,94670.40
2022-11-20T00:41:26.634Z,94666.20
2022-11-20T00:43:55.705Z,94669.20
2022-11-20T00:46:27.774Z,94675.00
2022-11-20T00:48:54.525Z,94675.00
2022-11-20T00:51:25.674Z,94684.20
2022-11-20T00:53:53.094Z,94685.00
2022-11-20T00:56:20.663Z,94679.60
2022-11-20T00:58:49.554Z,94690.20
2022-11-20T01:01:26.100Z,94683.80
2022-11-20T01:03:56.538Z,94686.60
2022-11-20T01:06:25.386Z,94690.60
2022-11-20T01:08:56.160Z,94693.80
2022-11-20T01:11:33.300Z,94697.00
2022-11-20T01:14:02.233Z,94699.20
2022-11-20T01:16:40.073Z,94698.40
2022-11-20T01:19:14.817Z,94697.80
2022-11-20T01:21:46.177Z,94699.60
2022-11-20T01:24:16.565Z,94700.80
2022-11-20T01:26:46.665Z,94705.40
2022-11-20T01:29:23.693Z,94709.20
2022-11-20T01:31:52.532Z,94705.60
2022-11-20T01:34:21.828Z,94704.40
2022-11-20T01:36:49.571Z,94705.40
2022-11-20T01:39:23.174Z,94705.20
2022-11-20T01:42:10.774Z,94710.20
2022-11-20T01:44:54.293Z,94713.60
2022-11-20T01:47:33.786Z,94710.60
2022-11-20T01:50:26.748Z,94710.40
2022-11-20T01:53:00.147Z,94711.20
2022-11-20T01:55:34.273Z,94710.40
2022-11-20T01:58:03.580Z,94712.60
2022-11-20T02:00:30.730Z,94708.20
2022-11-20T02:03:10.684Z,94711.40
2022-11-20T02:05:55.251Z,94710.00
2022-11-20T02:08:22.819Z,94707.40
2022-11-20T02:10:49.443Z,94707.80
2022-11-20T02:13:35.915Z,94710.00
2022-11-20T02:16:04.304Z,94712.40
2022-11-20T02:18:31.476Z,94716.00
2022-11-20T02:21:14.141Z,94711.80
2022-11-20T02:23:58.177Z,94713.40
2022-11-20T02:26:26.604Z,94716.00
2022-11-20T02:28:53.356Z,94712.80
2022-11-20T02:31:19.947Z,94713.80
2022-11-20T02:33:46.617Z,94714.60
2022-11-20T02:36:16.597Z,94714.00
2022-11-20T02:38:44.375Z,94712.00
2022-11-20T02:41:11.079Z,94715.40
2022-11-20T02:43:37.733Z,94716.20
2022-11-20T02:46:04.293Z,94717.60
2022-11-20T02:48:33.824Z,94712.80
2022-11-20T02:51:01.327Z,94716.00
2022-11-20T02:53:28.139Z,94710.40
2022-11-20T02:55:54.792Z,94715.20
2022-11-20T02:58:21.387Z,94716.60
2022-11-20T03:00:48.018Z,94714.80
2022-11-20T03:03:14.620Z,94712.00
2022-11-20T03:05:41.237Z,94710.40
2022-11-20T03:08:08.282Z,94708.60
2022-11-20T03:10:35.042Z,94710.60
2022-11-20T03:13:01.618Z,94704.80
2022-11-20T03:15:30.689Z,94703.20
2022-11-20T03:17:57.393Z,94706.40
2022-11-20T03:20:24.993Z,94706.00
2022-11-20T03:22:51.872Z,94702.80
2022-11-20T03:25:18.495Z,94701.40
2022-11-20T03:27:45.103Z,94705.40
2022-11-20T03:30:12.252Z,94706.20
2022-11-20T03:32:38.950Z,94705.40
2022-11-20T03:35:06.416Z,94706.00
2022-11-20T03:37:33.547Z,94700.60
2022-11-20T03:40:00.176Z,94702.80
2022-11-20T03:42:45.524Z,94700.40
2022-11-20T03:45:21.634Z,94699.60
2022-11-20T03:47:48.502Z,94698.20
2022-11-20T03:50:15.805Z,94701.20
2022-11-20T03:52:43.284Z,94698.80
2022-11-20T03:55:10.610Z,94700.40
2022-11-20T03:57:37.313Z,94706.20
2022-11-20T04:00:06.446Z,94708.60
2022-11-20T04:02:33.055Z,94710.80
2022-11-20T04:04:59.725Z,94711.20
2022-11-20T04:07:26.441Z,94714.00
2022-11-20T04:09:53.104Z,94717.00
2022-11-20T04:12:19.748Z,94709.80
2022-11-20T04:14:46.425Z,94711.80
2022-11-20T04:17:13.086Z,94714.20
2022-11-20T04:19:39.690Z,94711.20
2022-11-20T04:22:06.398Z,94710.00
2022-11-20T04:24:32.976Z,94715.20
2022-11-20T04:26:59.585Z,94711.20
2022-11-20T04:29:26.153Z,94713.60
2022-11-20T04:31:52.743Z,94706.80
2022-11-20T04:34:19.339Z,94710.60
2022-11-20T04:36:45.904Z,94705.60
2022-11-20T04:39:16.363Z,94708.00
2022-11-20T04:41:44.055Z,94708.40
2022-11-20T04:44:11.252Z,94708.80
2022-11-20T04:46:43.959Z,94708.80
2022-11-20T04:49:12.759Z,94710.20
2022-11-20T04:51:39.511Z,94717.60
2022-11-20T04:54:06.113Z,94714.20
2022-11-20T04:56:32.875Z,94716.40
2022-11-20T04:59:03.563Z,94717.20
2022-11-20T05:01:31.275Z,94717.40
2022-11-20T05:03:57.977Z,94713.00
2022-11-20T05:06:24.673Z,94714.40
2022-11-20T05:08:51.482Z,94717.60
2022-11-20T05:11:21.762Z,94715.20
2022-11-20T05:13:49.853Z,94715.40
2022-11-20T05:16:20.986Z,94717.00
2022-11-20T05:18:48.260Z,94711.60
2022-11-20T05:21:15.979Z,94714.20
2022-11-20T05:23:44.023Z,94709.80
2022-11-20T05:26:17.242Z,94719.40
2022-11-20T05:28:44.226Z,94717.00
2022-11-20T05:31:21.990Z,94717.80
2022-11-20T05:33:52.417Z,94719.80
2022-11-20T05:36:19.130Z,94717.00
2022-11-20T05:38:49.057Z,94718.20
2022-11-20T05:41:20.517Z,94715.80
2022-11-20T05:43:49.320Z,94715.40
2022-11-20T05:46:24.748Z,94720.40
2022-11-20T05:48:55.085Z,94720.20
2022-11-20T05:51:22.128Z,94723.80
2022-11-20T05:53:49.106Z,94719.00
2022-11-20T05:56:21.517Z,94717.60
2022-11-20T05:58:49.319Z,94722.80
2022-11-20T06:01:23.619Z,94719.80
2022-11-20T06:03:52.219Z,94715.40
2022-11-20T06:06:20.730Z,94719.00
2022-11-20T06:08:47.579Z,94723.20
2022-11-20T06:11:15.505Z,94717.00
2022-11-20T06:13:43.303Z,94721.60
2022-11-20T06:16:11.430Z,94718.80
2022-11-20T06:18:38.513Z,94719.40
2022-11-20T06:21:09.672Z,94719.80
2022-11-20T06:23:37.562Z,94724.60
2022-11-20T06:26:08.191Z,94725.60
2022-11-20T06:28:35.174Z,94719.20
2022-11-20T06:31:02.355Z,94718.60
2022-11-20T06:33:29.574Z,94724.60
2022-11-20T06:36:04.655Z,94724.20
2022-11-20T06:38:35.793Z,94728.80
2022-11-20T06:41:02.492Z,94729.20
2022-11-20T06:43:30.522Z,94735.40
2022-11-20T06:45:59.583Z,94729.40
2022-11-20T06:48:29.967Z,94737.80
2022-11-20T06:50:57.786Z,94744.20
2022-11-20T06:53:25.335Z,94742.20
2022-11-20T06:55:53.136Z,94747.60
2022-11-20T06:58:20.166Z,94748.00
2022-11-20T07:00:46.969Z,94754.00
2022-11-20T07:03:14.501Z,94759.80
2022-11-20T07:05:41.339Z,94759.80
2022-11-20T07:08:08.199Z,94761.40
2022-11-20T07:10:34.939Z,94755.60
2022-11-20T07:13:01.661Z,94760.20
2022-11-20T07:15:28.336Z,94762.60
2022-11-20T07:17:54.942Z,94762.40
2022-11-20T07:20:21.749Z,94760.80
2022-11-20T07:22:58.038Z,94766.60
2022-11-20T07:25:29.120Z,94765.80
2022-11-20T07:28:00.665Z,94766.20
2022-11-20T07:30:29.147Z,94768.00
2022-11-20T07:32:57.480Z,94767.00
2022-11-20T07:35:25.866Z,94770.00
2022-11-20T07:37:52.569Z,94765.40
2022-11-20T07:40:19.641Z,94766.40
2022-11-20T07:42:55.062Z,94763.20
2022-11-20T07:45:24.313Z,94768.60
2022-11-20T07:47:51.581Z,94763.80
2022-11-20T07:50:18.655Z,94768.40
2022-11-20T07:52:45.335Z,94771.40
2022-11-20T07:55:12.639Z,94771.40
2022-11-20T07:57:39.334Z,94768.20
2022-11-20T08:00:11.450Z,94767.80
2022-11-20T08:02:42.151Z,94771.80
2022-11-20T08:05:12.370Z,94775.60
2022-11-20T08:07:40.987Z,94774.00
2022-11-20T08:10:09.820Z,94779.40
2022-11-20T08:12:55.322Z,94777.40
2022-11-20T08:15:22.926Z,94781.40
2022-11-20T08:18:15.486Z,94780.00
2022-11-20T08:20:36.199Z,94779.60
2022-11-20T08:23:06.685Z,94781.80
2022-11-20T08:25:36.017Z,94779.60
2022-11-20T08:28:15.907Z,94777.20
2022-11-20T08:30:46.888Z,94780.60
2022-11-20T08:33:13.629Z,94781.20
2022-11-20T08:35:42.162Z,94782.00
2022-11-20T08:38:09.910Z,94775.80
2022-11-20T08:40:36.635Z,94779.80
2022-11-20T08:43:03.308Z,94779.40
2022-11-20T08:45:34.156Z,94773.20
2022-11-20T08:48:05.428Z,94775.80
2022-11-20T08:50:34.019Z,94774.40
2022-11-20T08:53:07.900Z,94772.60
2022-11-20T08:55:36.863Z,94774.20
2022-11-20T08:58:10.093Z,94776.40
2022-11-20T09:00:36.807Z,94775.20
2022-11-20T09:03:03.594Z,94777.40
2022-11-20T09:05:30.640Z,94771.60
2022-11-20T09:07:59.125Z,94772.80
2022-11-20T09:10:27.146Z,94777.20
2022-11-20T09:12:56.005Z,94770.60
2022-11-20T09:15:24.542Z,94768.60
2022-11-20T09:18:12.462Z,94772.80
2022-11-20T09:20:39.151Z,94772.00
2022-11-20T09:23:05.834Z,94767.40
2022-11-20T09:25:32.453Z,94768.60
2022-11-20T09:27:59.873Z,94762.80
2022-11-20T09:30:27.886Z,94764.20
2022-11-20T09:32:55.067Z,94761.20
2022-11-20T09:35:21.994Z,94758.60
2022-11-20T09:37:48.885Z,94750.40
2022-11-20T09:40:25.746Z,94754.80
2022-11-20T09:43:08.380Z,94757.20
2022-11-20T09:46:13.675Z,94752.20
2022-11-20T09:49:11.503Z,94752.20
2022-11-20T09:51:50.945Z,94753.00
2022-11-20T09:54:21.416Z,94744.00
2022-11-20T09:56:55.986Z,94741.60
2022-11-20T09:59:39.537Z,94739.00
2022-11-20T10:02:50.158Z,94738.40
2022-11-20T10:05:27.718Z,94734.80
2022-11-20T10:08:17.575Z,94726.80
2022-11-20T10:10:52.623Z,94725.80
2022-11-20T10:13:59.229Z,94717.40
2022-11-20T10:17:17.226Z,94716.80
2022-11-20T10:19:53.139Z,94714.00
2022-11-20T10:22:51.389Z,94716.80
2022-11-20T10:25:40.410Z,94714.00
2022-11-20T10:28:22.295Z,94722.40
2022-11-20T10:31:09.274Z,94718.80
2022-11-20T10:34:10.373Z,94720.20
2022-11-20T10:36:46.242Z,94726.60
2022-11-20T10:39:47.289Z,94722.20
2022-11-20T10:42:27.681Z,94724.60
2022-11-20T10:45:06.764Z,94723.60
2022-11-20T10:47:34.410Z,94721.00
2022-11-20T10:50:14.501Z,94718.80
2022-11-20T10:53:34.002Z,94724.00
2022-11-20T10:56:17.472Z,94721.20
2022-11-20T10:59:22.358Z,94718.40
2022-11-20T11:01:49.227Z,94718.00
2022-11-20T11:04:34.962Z,94720.20
2022-11-20T11:07:37.206Z,94718.40
2022-11-20T11:10:20.119Z,94719.20
2022-11-20T11:12:49.245Z,94717.20
2022-11-20T11:15:41.651Z,94713.60
2022-11-20T11:18:12.358Z,94708.00
2022-11-20T11:20:39.396Z,94713.00
2022-11-20T11:23:23.688Z,94705.40
2022-11-20T11:25:59.899Z,94705.80
2022-11-20T11:28:28.946Z,94700.40
2022-11-20T11:30:57.008Z,94702.00
2022-11-20T11:33:27.160Z,94700.40
2022-11-20T11:36:00.399Z,94698.40
2022-11-20T11:38:44.145Z,94693.40
2022-11-20T11:41:18.617Z,94696.00
2022-11-20T11:45:06.200Z,94700.40
2022-11-20T11:47:49.131Z,94699.80
2022-11-20T11:50:19.870Z,94696.00
2022-11-20T11:53:08.738Z,94692.40
2022-11-20T11:55:58.080Z,94690.60
2022-11-20T11:58:52.599Z,94694.60
2022-11-20T12:01:33.977Z,94687.00
2022-11-20T12:04:16.980Z,94692.60
2022-11-20T12:06:51.371Z,94698.80
2022-11-20T12:09:21.516Z,94702.60
2022-11-20T12:11:59.743Z,94706.20
2022-11-20T12:14:36.144Z,94705.40
2022-11-20T12:17:03.778Z,94708.40
2022-11-20T12:19:35.154Z,94715.80
2022-11-20T12:22:49.089Z,94708.80
2022-11-20T12:25:26.897Z,94703.20
2022-11-20T12:28:04.278Z,94699.00
2022-11-20T12:30:36.298Z,94692.80
2022-11-20T12:33:26.606Z,94695.00
2022-11-20T12:36:07.052Z,94689.20
2022-11-20T12:38:59.676Z,94695.00
2022-11-20T12:42:14.396Z,94697.60
2022-11-20T12:45:11.927Z,94696.20
2022-11-20T12:48:07.260Z,94696.00
2022-11-20T12:51:15.580Z,94697.80
2022-11-20T12:54:07.342Z,94696.00
2022-11-20T12:57:05.424Z,94698.20
2022-11-20T12:59:40.687Z,94707.60
2022-11-20T13:02:43.288Z,94696.20
2022-11-20T13:05:22.161Z,94694.80
2022-11-20T13:07:52.900Z,94696.40
2022-11-20T13:10:32.658Z,94693.40
2022-11-20T13:13:46.723Z,94701.00
2022-11-20T13:16:47.045Z,94696.40
2022-11-20T13:19:17.295Z,94695.80
2022-11-20T13:21:47.964Z,94680.40
2022-11-20T13:24:31.028Z,94681.40
2022-11-20T13:27:09.682Z,94677.80
2022-11-20T13:29:38.641Z,94675.40
2022-11-20T13:32:19.326Z,94672.20
2022-11-20T13:35:05.254Z,94671.20
2022-11-20T13:37:34.286Z,94666.80
2022-11-20T13:40:13.008Z,94668.60
2022-11-20T13:42:54.976Z,94661.80
2022-11-20T13:45:28.454Z,94656.60
2022-11-20T13:47:57.274Z,94657.20
2022-11-20T13:50:55.983Z,94659.80
2022-11-20T13:53:49.397Z,94658.80
2022-11-20T13:56:48.809Z,94654.80
2022-11-20T13:59:33.958Z,94655.80
2022-11-20T14:02:02.073Z,94654.80
2022-11-20T14:04:37.189Z,94659.60
2022-11-20T14:07:06.947Z,94659.00
2022-11-20T14:09:35.188Z,94659.40
2022-11-20T14:12:04.583Z,94659.20
2022-11-20T14:14:34.318Z,94658.20
2022-11-20T14:17:09.377Z,94660.20
2022-11-20T14:19:38.112Z,94661.60
2022-11-20T14:22:27.345Z,94660.00
2022-11-20T14:25:06.792Z,94662.00
2022-11-20T14:27:43.519Z,94662.40
2022-11-20T14:30:20.679Z,94660.60
2022-11-20T14:32:49.762Z,94660.80
2022-11-20T14:35:35.321Z,94666.60
2022-11-20T14:38:03.591Z,94663.00
2022-11-20T14:40:37.099Z,94658.40
2022-11-20T14:43:28.342Z,94662.80
2022-11-20T14:46:08.143Z,94664.20
2022-11-20T14:48:56.483Z,94661.40
2022-11-20T14:51:35.993Z,94658.40
2022-11-20T14:54:10.950Z,94661.00
2022-11-20T14:56:38.275Z,94659.60
2022-11-20T14:59:05.268Z,94658.40
2022-11-20T15:01:34.063Z,94659.00
2022-11-20T15:04:21.198Z,94658.60
2022-11-20T15:06:55.861Z,94661.00
2022-11-20T15:09:23.725Z,94654.40
2022-11-20T15:12:02.128Z,94656.60
2022-11-20T15:14:31.561Z,94663.40
2022-11-20T15:16:58.174Z,94659.60
2022-11-20T15:19:27.460Z,94663.20
2022-11-20T15:21:54.201Z,94660.60
2022-11-20T15:24:21.794Z,94664.00
2022-11-20T15:26:48.795Z,94664.00
2022-11-20T15:29:21.895Z,94660.40
2022-11-20T15:31:48.730Z,94663.60
2022-11-20T15:34:16.593Z,94667.20
2022-11-20T15:36:44.812Z,94667.20
2022-11-20T15:39:12.511Z,94663.60
2022-11-20T15:41:39.997Z,94661.00
2022-11-20T15:44:06.812Z,94659.20
2022-11-20T15:46:42.377Z,94656.00
2022-11-20T15:49:19.780Z,94656.00
2022-11-20T15:51:49.928Z,94649.60
2022-11-20T15:54:23.972Z,94652.00
2022-11-20T15:56:54.421Z,94650.20
2022-11-20T15:59:21.638Z,94648.60
2022-11-20T16:01:48.289Z,94649.80
2022-11-20T16:04:17.573Z,94651.40
2022-11-20T16:06:44.576Z,94645.60
2022-11-20T16:09:11.281Z,94648.00
2022-11-20T16:11:38.336Z,94642.60
2022-11-20T16:14:25.561Z,94641.20
2022-11-20T16:16:52.630Z,94641.80
2022-11-20T16:19:19.603Z,94640.40
2022-11-20T16:21:46.603Z,94642.60
2022-11-20T16:24:15.084Z,94639.80
2022-11-20T16:26:42.234Z,94641.60
2022-11-20T16:29:09.512Z,94640.20
2022-11-20T16:31:36.597Z,94633.80
2022-11-20T16:34:11.830Z,94633.40
2022-11-20T16:36:45.935Z,94632.80
2022-11-20T16:39:16.709Z,94629.20
2022-11-20T16:41:45.783Z,94628.40
2022-11-20T16:44:12.617Z,94630.40
2022-11-20T16:46:40.928Z,94637.00
2022-11-20T16:49:13.448Z,94637.00
2022-11-20T16:51:40.155Z,94634.40
2022-11-20T16:54:09.718Z,94634.80
2022-11-20T16:56:37.074Z,94630.80
2022-11-20T16:59:04.458Z,94629.40
2022-11-20T17:01:34.015Z,94623.40
2022-11-20T17:04:04.738Z,94625.00
2022-11-20T17:06:35.806Z,94621.60
2022-11-20T17:09:03.798Z,94622.40
2022-11-20T17:11:30.968Z,94620.00
2022-11-20T17:14:03.523Z,94616.00
2022-11-20T17:16:31.480Z,94615.80
2022-11-20T17:19:03.269Z,94615.20
2022-11-20T17:21:39.689Z,94613.80
2022-11-20T17:24:12.926Z,94615.60
2022-11-20T17:26:43.004Z,94615.60
2022-11-20T17:29:18.598Z,94612.80
2022-11-20T17:31:46.240Z,94610.20
2022-11-20T17:34:14.914Z,94611.20
2022-11-20T17:36:45.703Z,94611.60
2022-11-20T17:39:17.541Z,94611.60
2022-11-20T17:41:44.733Z,94607.40
2022-11-20T17:44:12.838Z,94603.40
2022-11-20T17:46:40.003Z,94606.80
2022-11-20T17:49:07.512Z,94600.80
2022-11-20T17:51:35.531Z,94598.20
2022-11-20T17:54:07.206Z,94600.80
2022-11-20T17:56:54.284Z,94601.40
2022-11-20T17:59:22.080Z,94598.40
2022-11-20T18:01:49.348Z,94598.60
2022-11-20T18:04:16.799Z,94598.60
2022-11-20T18:06:43.658Z,94596.20
2022-11-20T18:09:10.536Z,94588.80
2022-11-20T18:11:40.831Z,94589.80
2022-11-20T18:14:32.476Z,94588.40
2022-11-20T18:17:07.191Z,94593.40
2022-11-20T18:20:01.129Z,94597.80
2022-11-20T18:22:32.586Z,94594.40
2022-11-20T18:24:59.725Z,94594.40
2022-11-20T18:27:26.319Z,94592.60
2022-11-20T18:29:53.144Z,94587.40
2022-11-20T18:32:21.874Z,94578.80
2022-11-20T18:34:48.809Z,94578.20
2022-11-20T18:37:16.508Z,94570.40
2022-11-20T18:39:43.842Z,94573.60
2022-11-20T18:42:32.839Z,94577.40
2022-11-20T18:45:00.221Z,94575.20
2022-11-20T18:47:31.849Z,94572.80
2022-11-20T18:50:01.208Z,94565.20
2022-11-20T18:52:30.490Z,94564.40
2022-11-20T18:55:36.210Z,94559.20
2022-11-20T18:58:02.946Z,94548.40
2022-11-20T19:00:29.654Z,94544.20
2022-11-20T19:02:56.192Z,94541.20
2022-11-20T19:05:22.977Z,94545.80
2022-11-20T19:07:49.748Z,94544.60
2022-11-20T19:10:20.206Z,94543.60
2022-11-20T19:12:46.916Z,94537.40
2022-11-20T19:15:13.596Z,94532.20
2022-11-20T19:17:40.264Z,94534.40
2022-11-20T19:20:07.326Z,94535.20
2022-11-20T19:22:33.953Z,94528.40
2022-11-20T19:25:00.722Z,94526.40
2022-11-20T19:27:27.389Z,94520.40
2022-11-20T19:29:58.768Z,94523.40
2022-11-20T19:32:25.472Z,94526.80
2022-11-20T19:34:52.125Z,94524.60
2022-11-20T19:37:18.805Z,94520.60
2022-11-20T19:39:45.410Z,94516.80
2022-11-20T19:42:12.179Z,94517.60
2022-11-20T19:44:38.745Z,94516.40
2022-11-20T19:47:08.914Z,94521.60
2022-11-20T19:49:37.280Z,94521.80
2022-11-20T19:52:04.050Z,94521.20
2022-11-20T19:54:30.665Z,94518.80
2022-11-20T19:56:57.397Z,94513.20
2022-11-20T19:59:24.408Z,94511.80
2022-11-20T20:01:51.292Z,94503.20
2022-11-20T20:04:18.319Z,94498.00
2022-11-20T20:06:45.100Z,94495.20
2022-11-20T20:09:13.247Z,94493.80
2022-11-20T20:11:42.211Z,94493.60
2022-11-20T20:14:14.767Z,94489.60
2022-11-20T20:16:42.370Z,94485.20
2022-11-20T20:19:16.074Z,94484.60
2022-11-20T20:21:43.885Z,94481.20
2022-11-20T20:24:11.951Z,94482.60
2022-11-20T20:26:38.661Z,94484.00
2022-11-20T20:29:05.347Z,94479.20
2022-11-20T20:31:33.811Z,94479.80
2022-11-20T20:34:03.440Z,94474.80
2022-11-20T20:36:32.426Z,94474.40
2022-11-20T20:38:59.713Z,94469.40
2022-11-20T20:41:26.659Z,94471.60
2022-11-20T20:44:12.677Z,94469.60
2022-11-20T20:46:40.286Z,94472.60
2022-11-20T20:49:07.529Z,94472.80
2022-11-20T20:51:34.518Z,94472.80
2022-11-20T20:54:01.237Z,94467.40
2022-11-20T20:56:27.955Z,94466.60
2022-11-20T20:58:54.605Z,94467.00
2022-11-20T21:01:22.884Z,94468.40
2022-11-20T21:03:49.926Z,94466.40
2022-11-20T21:06:17.040Z,94465.20
2022-11-20T21:08:44.792Z,94466.40
2022-11-20T21:11:17.838Z,94459.00
2022-11-20T21:13:47.028Z,94454.40
2022-11-20T21:16:16.169Z,94451.60
2022-11-20T21:18:43.499Z,94451.60
2022-11-20T21:21:32.877Z,94447.80
2022-11-20T21:23:59.873Z,94440.40
2022-11-20T21:26:26.679Z,94440.60
2022-11-20T21:28:53.792Z,94446.40
2022-11-20T21:31:24.994Z,94451.40
2022-11-20T21:33:54.172Z,94455.80
2022-11-20T21:36:30.891Z,94456.80
2022-11-20T21:38:59.489Z,94459.80
2022-11-20T21:41:28.255Z,94468.80
2022-11-20T21:44:29.160Z,94476.20
2022-11-20T21:46:45.090Z,94475.40
2022-11-20T21:49:12.352Z,94480.00
2022-11-20T21:51:39.004Z,94491.80
2022-11-20T21:54:05.904Z,94488.60
2022-11-20T21:56:32.678Z,94490.40
2022-11-20T21:58:59.364Z,94491.40
2022-11-20T22:01:29.723Z,94496.80
2022-11-20T22:04:00.186Z,94493.20
2022-11-20T22:06:32.604Z,94492.60
2022-11-20T22:09:00.959Z,94489.40
2022-11-20T22:11:27.801Z,94484.60
2022-11-20T22:14:13.334Z,94478.20
2022-11-20T22:16:40.019Z,94473.00
2022-11-20T22:19:07.014Z,94477.20
2022-11-20T22:21:35.299Z,94481.00
2022-11-20T22:24:02.157Z,94469.80
2022-11-20T22:26:39.697Z,94485.60
2022-11-20T22:29:08.317Z,94482.40
2022-11-20T22:31:34.861Z,94483.20
2022-11-20T22:34:02.671Z,94483.40
2022-11-20T22:36:31.429Z,94479.60
2022-11-20T22:38:58.672Z,94486.00
2022-11-20T22:41:29.137Z,94488.20
2022-11-20T22:44:01.728Z,94498.40
2022-11-20T22:46:32.069Z,94496.40
2022-11-20T22:49:02.604Z,94497.80
2022-11-20T22:51:35.752Z,94494.80
2022-11-20T22:54:03.634Z,94499.00
2022-11-20T22:56:30.984Z,94488.80
2022-11-20T22:58:57.639Z,94494.60
2022-11-20T23:01:28.379Z,94489.80
2022-11-20T23:03:58.487Z,94488.20
2022-11-20T23:06:26.821Z,94492.40
2022-11-20T23:08:54.398Z,94485.00
2022-11-20T23:11:27.396Z,94490.60
2022-11-20T23:14:00.426Z,94491.60
2022-11-20T23:16:30.126Z,94495.60
2022-11-20T23:19:00.394Z,94493.00
2022-11-20T23:21:27.308Z,94492.80
2022-11-20T23:23:57.093Z,94499.20
2022-11-20T23:26:28.377Z,94496.00
2022-11-20T23:28:57.818Z,94493.20
2022-11-20T23:31:26.885Z,94492.00
2022-11-20T23:33:53.755Z,94493.20
2022-11-20T23:36:20.815Z,94487.60
2022-11-20T23:38:47.490Z,94483.00
2022-11-20T23:41:14.986Z,94492.00
2022-11-20T23:43:41.603Z,94492.20
2022-11-20T23:46:13.750Z,94485.80
2022-11-20T23:48:43.392Z,94480.80
2022-11-20T23:51:10.031Z,94485.60
2022-11-20T23:53:36.681Z,94491.00
2022-11-20T23:56:05.519Z,94485.20
2022-11-20T23:58:36.018Z,94486.40
